Time;durP1;ratioP1;P1;durP2;ratioP2;P2;SDS_P1;SDS_P2;PMS_P1;PMS_P2;Temp;Humidity;BMP_temperature;BMP_pressure;BME280_temperature;BME280_humidity;BME280_pressure;Samples;Min_cycle;Max_cycle;Signal;HPM_P1;HPM_P2
2022/01/05 00:02:24;;;;;;;14.57;1.75;;;;;;;2.34;100.00;100068.59;4982181;28;20082;-45
2022/01/05 00:04:50;;;;;;;12.23;1.58;;;;;;;2.31;100.00;100077.59;4979649;28;20026;-47
2022/01/05 00:07:15;;;;;;;11.20;1.63;;;;;;;2.33;100.00;100082.75;4980307;28;20030;-46
2022/01/05 00:09:41;;;;;;;8.98;1.55;;;;;;;2.30;100.00;100075.91;4975554;28;20035;-49
2022/01/05 00:12:06;;;;;;;17.02;2.67;;;;;;;2.32;100.00;100078.44;4960765;28;20039;-50
2022/01/05 00:14:32;;;;;;;12.85;1.63;;;;;;;2.31;100.00;100087.28;4977715;28;20041;-47
2022/01/05 00:16:57;;;;;;;18.23;1.85;;;;;;;2.26;100.00;100078.91;4981723;28;20034;-45
2022/01/05 00:19:22;;;;;;;14.45;1.73;;;;;;;2.25;100.00;100078.09;4972153;28;20026;-46
2022/01/05 00:21:48;;;;;;;13.43;1.70;;;;;;;2.22;100.00;100076.56;4966863;28;20046;-47
2022/01/05 00:24:13;;;;;;;21.95;2.40;;;;;;;2.20;100.00;100082.91;4961851;28;20038;-48
2022/01/05 00:26:39;;;;;;;18.58;1.98;;;;;;;2.16;100.00;100078.88;4962208;28;20030;-46
2022/01/05 00:29:05;;;;;;;10.88;1.98;;;;;;;2.14;100.00;100080.75;4962262;28;20023;-45
2022/01/05 00:31:31;;;;;;;13.55;1.58;;;;;;;2.13;100.00;100085.19;4961164;28;20094;-47
2022/01/05 00:33:56;;;;;;;14.20;2.78;;;;;;;2.10;100.00;100085.44;4962471;28;20027;-46
2022/01/05 00:36:21;;;;;;;19.85;2.92;;;;;;;2.10;100.00;100089.88;4962192;28;20149;-44
2022/01/05 00:38:47;;;;;;;19.20;2.35;;;;;;;2.13;100.00;100093.09;4960984;28;20080;-47
2022/01/05 00:41:13;;;;;;;16.15;2.25;;;;;;;2.12;100.00;100101.13;4962308;28;20033;-47
2022/01/05 00:43:40;;;;;;;17.65;2.08;;;;;;;2.07;100.00;100101.53;4961334;28;20027;-46
2022/01/05 00:46:05;;;;;;;15.18;2.15;;;;;;;2.02;100.00;100101.91;4961013;28;20347;-47
2022/01/05 00:48:32;;;;;;;16.27;2.50;;;;;;;1.99;100.00;100093.41;4961546;28;20023;-47
2022/01/05 00:51:00;;;;;;;11.57;1.60;;;;;;;1.99;100.00;100103.94;4961835;28;20081;-46
2022/01/05 00:53:26;;;;;;;16.25;2.38;;;;;;;1.99;100.00;100114.47;4961564;28;20031;-46
2022/01/05 00:55:51;;;;;;;17.77;2.65;;;;;;;1.97;100.00;100111.97;4961898;28;20037;-49
2022/01/05 00:58:16;;;;;;;11.35;1.92;;;;;;;1.96;100.00;100105.00;4961356;28;20026;-44
2022/01/05 01:00:42;;;;;;;12.38;2.53;;;;;;;1.95;100.00;100107.75;4961546;28;20045;-46
2022/01/05 01:03:07;;;;;;;14.30;2.35;;;;;;;1.91;100.00;100116.88;4962067;28;20090;-46
2022/01/05 01:05:32;;;;;;;21.05;2.45;;;;;;;1.90;100.00;100108.16;4960880;28;20031;-49
2022/01/05 01:07:58;;;;;;;17.35;2.55;;;;;;;1.89;100.00;100118.81;4961706;28;20027;-46
2022/01/05 01:10:23;;;;;;;12.05;2.00;;;;;;;1.88;100.00;100117.13;4961543;28;20023;-47
2022/01/05 01:12:51;;;;;;;11.18;2.20;;;;;;;1.82;100.00;100108.75;4943547;28;20031;-48
2022/01/05 01:15:16;;;;;;;14.68;2.05;;;;;;;1.83;100.00;100120.13;4962052;28;20031;-47
2022/01/05 01:17:41;;;;;;;12.55;2.47;;;;;;;1.77;100.00;100126.72;4961304;28;20034;-47
2022/01/05 01:20:08;;;;;;;21.52;2.47;;;;;;;1.77;100.00;100126.72;4961660;28;20050;-44
2022/01/05 01:22:34;;;;;;;10.68;2.40;;;;;;;1.72;100.00;100128.88;4960415;28;20055;-44
2022/01/05 01:25:00;;;;;;;9.38;1.90;;;;;;;1.71;100.00;100132.47;4961350;28;20019;-48
2022/01/05 01:27:25;;;;;;;21.88;2.92;;;;;;;1.71;100.00;100129.00;4961802;28;20566;-48
2022/01/05 01:29:51;;;;;;;17.38;2.67;;;;;;;1.71;100.00;100136.91;4961280;28;20354;-48
2022/01/05 01:32:16;;;;;;;23.98;3.65;;;;;;;1.67;100.00;100133.66;4961518;28;20034;-46
2022/01/05 01:34:42;;;;;;;9.88;2.47;;;;;;;1.64;100.00;100131.28;4960957;28;20029;-47
2022/01/05 01:37:07;;;;;;;11.30;2.20;;;;;;;1.61;100.00;100134.16;4961166;28;20157;-47
2022/01/05 01:39:32;;;;;;;18.63;3.13;;;;;;;1.57;100.00;100130.91;4959930;28;20509;-47
2022/01/05 01:41:58;;;;;;;16.33;2.92;;;;;;;1.53;100.00;100121.59;4961335;28;20038;-45
2022/01/05 01:44:23;;;;;;;16.40;3.78;;;;;;;1.49;100.00;100130.69;4963943;28;20029;-48
2022/01/05 01:46:48;;;;;;;17.05;3.17;;;;;;;1.46;100.00;100129.16;4965248;28;20395;-47
2022/01/05 01:49:14;;;;;;;17.27;3.30;;;;;;;1.45;100.00;100126.63;4965329;28;20409;-46
2022/01/05 01:51:39;;;;;;;18.75;3.70;;;;;;;1.43;100.00;100134.63;4964945;28;20030;-45
2022/01/05 01:54:06;;;;;;;25.52;4.65;;;;;;;1.42;100.00;100140.03;4963016;28;20022;-49
2022/01/05 01:56:33;;;;;;;16.65;3.35;;;;;;;1.40;100.00;100137.50;4965351;28;20484;-46
2022/01/05 01:59:00;;;;;;;14.32;2.55;;;;;;;1.34;100.00;100139.78;4964825;28;20065;-46
2022/01/05 02:01:25;;;;;;;11.43;2.10;;;;;;;1.31;100.00;100143.50;4932372;28;20038;-46
2022/01/05 02:03:51;;;;;;;13.25;2.25;;;;;;;1.29;100.00;100134.84;4964698;28;20030;-49
2022/01/05 02:06:16;;;;;;;10.32;1.90;;;;;;;1.25;100.00;100134.25;4964725;28;20030;-46
2022/01/05 02:08:42;;;;;;;14.38;3.00;;;;;;;1.24;100.00;100129.97;4964120;28;20035;-47
2022/01/05 02:11:09;;;;;;;15.55;2.55;;;;;;;1.22;100.00;100124.00;4964785;28;20433;-50
2022/01/05 02:13:35;;;;;;;15.32;2.20;;;;;;;1.19;100.00;100124.22;4962412;28;20078;-48
2022/01/05 02:16:01;;;;;;;14.00;2.30;;;;;;;1.16;100.00;100129.72;4964705;28;20030;-49
2022/01/05 02:21:01;;;;;;;11.93;2.28;;;;;;;1.14;100.00;100126.38;4964845;28;20035;-44
2022/01/05 02:23:27;;;;;;;14.18;2.55;;;;;;;1.13;100.00;100129.13;4963950;28;20414;-46
2022/01/05 02:25:53;;;;;;;16.50;2.20;;;;;;;1.10;100.00;100128.41;4964918;28;20026;-47
2022/01/05 02:28:18;;;;;;;14.73;3.20;;;;;;;1.11;100.00;100139.75;4963749;28;20105;-47
2022/01/05 02:30:43;;;;;;;18.75;3.25;;;;;;;1.06;100.00;100132.22;4962186;28;20042;-47
2022/01/05 02:33:09;;;;;;;17.27;3.88;;;;;;;1.05;100.00;100142.84;4946982;28;20065;-44
2022/01/05 02:35:34;;;;;;;15.27;2.72;;;;;;;1.05;100.00;100140.22;4964483;28;20033;-45
2022/01/05 02:38:00;;;;;;;24.23;2.58;;;;;;;1.06;100.00;100145.38;4946856;28;20026;-46
2022/01/05 02:40:26;;;;;;;10.50;2.25;;;;;;;1.03;100.00;100148.22;4964355;28;20038;-45
2022/01/05 02:42:56;;;;;;;6.90;1.80;;;;;;;1.00;100.00;100142.38;4963548;28;20544;-46
2022/01/05 02:45:22;;;;;;;12.65;2.30;;;;;;;1.00;100.00;100143.22;4964471;28;20465;-45
2022/01/05 02:47:48;;;;;;;18.88;2.40;;;;;;;0.98;100.00;100152.16;4963229;28;20053;-46
2022/01/05 02:50:14;;;;;;;11.13;2.28;;;;;;;0.99;100.00;100151.22;4964369;28;20031;-49
2022/01/05 02:52:40;;;;;;;13.20;2.78;;;;;;;0.98;100.00;100153.00;4961640;28;20023;-45
2022/01/05 02:55:07;;;;;;;15.52;1.92;;;;;;;0.96;100.00;100157.53;4962859;28;20069;-48
2022/01/05 02:57:32;;;;;;;16.67;2.63;;;;;;;0.92;100.00;100156.94;4963760;28;20034;-45
2022/01/05 02:59:58;;;;;;;12.68;2.40;;;;;;;0.90;100.00;100161.47;4964265;28;20026;-46
2022/01/05 03:02:23;;;;;;;14.45;2.33;;;;;;;0.91;100.00;100163.13;4964201;28;20454;-46
2022/01/05 03:04:48;;;;;;;15.25;2.15;;;;;;;0.92;100.00;100164.81;4963212;28;20037;-44
2022/01/05 03:07:15;;;;;;;8.63;1.65;;;;;;;0.91;100.00;100170.19;4963487;28;20098;-48
2022/01/05 03:09:41;;;;;;;15.13;2.00;;;;;;;0.88;100.00;100173.91;4962606;28;20045;-46
2022/01/05 03:12:07;;;;;;;18.20;2.10;;;;;;;0.88;100.00;100178.31;4964077;28;20385;-46
2022/01/05 03:14:32;;;;;;;13.48;2.15;;;;;;;0.89;100.00;100183.44;4963025;28;20030;-45
2022/01/05 03:16:58;;;;;;;18.27;2.22;;;;;;;0.84;100.00;100180.34;4963989;28;20037;-45
2022/01/05 03:19:23;;;;;;;16.05;2.17;;;;;;;0.83;100.00;100190.97;4963984;28;20022;-47
2022/01/05 03:21:48;;;;;;;18.25;3.97;;;;;;;0.84;100.00;100187.38;4962199;28;20053;-45
2022/01/05 03:24:13;;;;;;;15.95;2.15;;;;;;;0.85;100.00;100194.31;4945573;28;20350;-46
2022/01/05 03:26:39;;;;;;;16.35;2.58;;;;;;;0.86;100.00;100196.81;4963561;28;20033;-44
2022/01/05 03:29:04;;;;;;;9.50;1.95;;;;;;;0.92;100.00;100199.00;4963177;28;20161;-46
2022/01/05 03:31:29;;;;;;;15.52;2.20;;;;;;;0.96;100.00;100190.88;4963065;28;20033;-49
2022/01/05 03:33:55;;;;;;;15.57;1.92;;;;;;;0.96;100.00;100206.66;4964003;28;20434;-46
2022/01/05 03:36:20;;;;;;;12.68;2.20;;;;;;;0.98;100.00;100205.59;4963380;28;20045;-49
2022/01/05 03:38:45;;;;;;;9.73;1.55;;;;;;;1.06;100.00;100210.28;4961266;28;20114;-47
2022/01/05 03:41:11;;;;;;;19.45;2.40;;;;;;;1.13;100.00;100205.41;4963045;28;20045;-47
2022/01/05 03:43:37;;;;;;;15.35;2.22;;;;;;;1.17;100.00;100204.19;4962459;28;20117;-47
2022/01/05 03:46:02;;;;;;;21.92;2.55;;;;;;;1.18;100.00;100203.25;4963427;28;20033;-46
2022/01/05 03:48:27;;;;;;;11.30;2.60;;;;;;;1.22;100.00;100202.06;4963270;28;20087;-45
2022/01/05 03:50:52;;;;;;;21.98;2.70;;;;;;;1.19;100.00;100205.78;4963423;28;20122;-45
2022/01/05 03:53:18;;;;;;;13.13;1.80;;;;;;;1.19;100.00;100207.53;4961650;28;20397;-46
2022/01/05 03:55:46;;;;;;;21.25;2.65;;;;;;;1.16;100.00;100199.91;4961594;28;20533;-46
2022/01/05 03:58:11;;;;;;;16.17;2.10;;;;;;;1.08;100.00;100195.22;4961719;28;20138;-47
2022/01/05 04:00:40;;;;;;;14.30;1.92;;;;;;;0.99;100.00;100209.91;4962512;28;20034;-46
2022/01/05 04:03:05;;;;;;;16.08;2.13;;;;;;;0.92;100.00;100206.88;4962843;28;20023;-47
2022/01/05 04:05:31;;;;;;;18.13;2.58;;;;;;;0.89;100.00;100214.16;4962410;28;20060;-45
2022/01/05 04:07:57;;;;;;;21.98;2.08;;;;;;;0.86;100.00;100217.84;4961209;28;20041;-47
2022/01/05 04:10:23;;;;;;;22.17;2.58;;;;;;;0.85;100.00;100210.06;4946242;28;20078;-48
2022/01/05 04:12:48;;;;;;;16.83;2.53;;;;;;;0.85;100.00;100218.81;4961339;28;20332;-45
2022/01/05 04:15:15;;;;;;;24.00;3.13;;;;;;;0.87;100.00;100223.97;4962612;28;20026;-47
2022/01/05 04:17:40;;;;;;;15.93;2.38;;;;;;;0.87;100.00;100221.34;4962138;28;20104;-49
2022/01/05 04:20:06;;;;;;;18.08;2.45;;;;;;;0.84;100.00;100219.75;4962946;28;20034;-48
2022/01/05 04:22:31;;;;;;;15.68;2.08;;;;;;;0.82;100.00;100224.31;4961508;28;20399;-48
2022/01/05 04:24:57;;;;;;;18.65;1.95;;;;;;;0.81;100.00;100224.41;4961938;28;20145;-47
2022/01/05 04:27:22;;;;;;;14.60;2.10;;;;;;;0.79;100.00;100236.84;4962807;28;20053;-48
2022/01/05 04:29:47;;;;;;;19.08;2.17;;;;;;;0.80;100.00;100230.59;4961185;28;20029;-47
2022/01/05 04:32:13;;;;;;;23.38;2.85;;;;;;;0.81;100.00;100238.38;4961920;28;20027;-46
2022/01/05 04:34:38;;;;;;;20.17;2.53;;;;;;;0.80;100.00;100235.88;4962312;28;20031;-48
2022/01/05 04:37:05;;;;;;;11.27;1.80;;;;;;;0.81;100.00;100243.63;4961843;28;20474;-46
2022/01/05 04:39:31;;;;;;;18.05;2.55;;;;;;;0.84;100.00;100251.31;4961319;28;20034;-44
2022/01/05 04:41:56;;;;;;;16.48;2.20;;;;;;;0.91;100.00;100246.44;4962742;28;20034;-44
2022/01/05 04:44:21;;;;;;;15.90;2.80;;;;;;;0.96;100.00;100254.81;4962168;28;20592;-45
2022/01/05 04:46:46;;;;;;;20.38;2.83;;;;;;;1.01;100.00;100246.59;4961489;28;20022;-46
2022/01/05 04:49:12;;;;;;;25.15;2.38;;;;;;;1.10;100.00;100254.66;4961771;28;20026;-45
2022/01/05 04:51:38;;;;;;;14.48;2.22;;;;;;;1.17;100.00;100248.91;4959848;28;20289;-46
2022/01/05 04:54:05;;;;;;;16.13;2.35;;;;;;;1.21;100.00;100245.94;4961071;28;20403;-46
2022/01/05 04:56:30;;;;;;;19.55;2.25;;;;;;;1.25;100.00;100238.66;4961823;28;20037;-49
2022/01/05 04:58:56;;;;;;;15.32;2.08;;;;;;;1.28;100.00;100247.16;4962109;28;20469;-45
2022/01/05 05:01:22;;;;;;;18.15;2.38;;;;;;;1.32;100.00;100244.28;4962587;28;20453;-44
2022/01/05 05:03:48;;;;;;;13.07;2.42;;;;;;;1.34;100.00;100253.75;4960343;28;20022;-45
2022/01/05 05:06:13;;;;;;;17.92;1.95;;;;;;;1.39;100.00;100251.63;4960709;28;20378;-47
2022/01/05 05:08:38;;;;;;;14.18;2.28;;;;;;;1.45;100.00;100245.03;4960893;28;20062;-49
2022/01/05 05:11:03;;;;;;;19.67;2.30;;;;;;;1.48;100.00;100258.78;4961924;28;20029;-46
2022/01/05 05:13:29;;;;;;;18.83;2.58;;;;;;;1.53;100.00;100261.09;4961316;28;20438;-46
2022/01/05 05:15:54;;;;;;;18.38;2.28;;;;;;;1.54;100.00;100246.13;4962433;28;20070;-46
2022/01/05 05:18:19;;;;;;;25.77;2.58;;;;;;;1.58;100.00;100253.66;4961602;28;20027;-45
2022/01/05 05:20:45;;;;;;;20.77;2.63;;;;;;;1.59;100.00;100251.88;4961460;28;20057;-47
2022/01/05 05:23:10;;;;;;;15.07;2.22;;;;;;;1.59;100.00;100243.97;4959940;28;20042;-44
2022/01/05 05:25:35;;;;;;;18.35;2.42;;;;;;;1.62;100.00;100243.75;4943463;28;20038;-45
2022/01/05 05:28:01;;;;;;;21.38;2.45;;;;;;;1.60;100.00;100235.13;4961370;28;20096;-46
2022/01/05 05:30:26;;;;;;;16.88;2.33;;;;;;;1.58;100.00;100252.81;4961953;28;20053;-47
2022/01/05 05:32:55;;;;;;;25.27;2.33;;;;;;;1.58;100.00;100255.44;4961488;28;20457;-46
2022/01/05 05:35:21;;;;;;;25.10;2.40;;;;;;;1.59;100.00;100246.59;4961477;28;20039;-47
2022/01/05 05:37:46;;;;;;;24.20;2.60;;;;;;;1.59;100.00;100254.50;4959759;28;20135;-46
2022/01/05 05:40:12;;;;;;;22.83;3.08;;;;;;;1.66;100.00;100245.16;4961456;28;20106;-45
2022/01/05 05:42:37;;;;;;;20.50;2.83;;;;;;;1.71;100.00;100250.91;4961137;28;20023;-48
2022/01/05 05:45:03;;;;;;;27.05;3.92;;;;;;;1.73;100.00;100250.78;4961400;28;20100;-47
2022/01/05 05:47:28;;;;;;;17.75;2.50;;;;;;;1.80;100.00;100257.25;4961536;28;20034;-50
2022/01/05 05:49:53;;;;;;;23.35;2.55;;;;;;;1.84;100.00;100266.59;4961949;28;20023;-48
2022/01/05 05:52:18;;;;;;;24.15;2.45;;;;;;;1.85;100.00;100263.88;4961146;28;20542;-45
2022/01/05 05:54:44;;;;;;;21.63;3.17;;;;;;;1.88;100.00;100268.03;4942629;28;20034;-47
2022/01/05 05:57:09;;;;;;;15.85;2.47;;;;;;;1.92;100.00;100263.38;4961515;28;20271;-45
2022/01/05 05:59:34;;;;;;;21.02;2.38;;;;;;;1.93;100.00;100272.94;4960178;28;20121;-49
2022/01/05 06:02:00;;;;;;;19.80;2.53;;;;;;;1.93;100.00;100262.41;4944339;28;20077;-45
2022/01/05 06:04:25;;;;;;;18.63;2.70;;;;;;;1.93;100.00;100257.97;4961954;28;20074;-45
2022/01/05 06:06:50;;;;;;;20.30;2.67;;;;;;;1.91;100.00;100256.44;4960442;28;20035;-46
2022/01/05 06:09:16;;;;;;;25.25;2.88;;;;;;;1.85;100.00;100247.19;4960390;28;20041;-46
2022/01/05 06:11:41;;;;;;;27.70;3.42;;;;;;;1.84;100.00;100250.81;4960724;28;20110;-49
2022/01/05 06:14:06;;;;;;;24.42;2.75;;;;;;;1.80;100.00;100260.75;4960728;28;20026;-48
2022/01/05 06:16:31;;;;;;;19.23;2.75;;;;;;;1.81;100.00;100262.41;4961163;28;20031;-45
2022/01/05 06:18:57;;;;;;;15.43;2.38;;;;;;;1.90;100.00;100260.88;4943110;28;20540;-48
2022/01/05 06:21:22;;;;;;;15.63;2.55;;;;;;;1.95;100.00;100268.41;4961151;28;20061;-47
2022/01/05 06:23:47;;;;;;;22.83;2.83;;;;;;;1.97;100.00;100271.75;4959562;28;20027;-45
2022/01/05 06:26:12;;;;;;;18.27;2.10;;;;;;;1.99;100.00;100270.69;4960817;28;20460;-46
2022/01/05 06:28:38;;;;;;;16.58;2.58;;;;;;;2.02;100.00;100269.59;4960157;28;20034;-47
2022/01/05 06:31:03;;;;;;;21.70;3.15;;;;;;;2.05;100.00;100274.63;4964070;28;20031;-48
2022/01/05 06:33:29;;;;;;;15.65;2.22;;;;;;;2.07;100.00;100274.50;4947116;28;20678;-48
2022/01/05 06:35:54;;;;;;;16.80;2.75;;;;;;;2.10;100.00;100280.38;4965493;28;20026;-44
2022/01/05 06:38:20;;;;;;;20.13;2.75;;;;;;;2.15;100.00;100282.66;4963082;28;20382;-50
2022/01/05 06:40:45;;;;;;;31.05;3.35;;;;;;;2.18;100.00;100283.25;4964176;28;20134;-50
2022/01/05 06:43:10;;;;;;;14.93;2.45;;;;;;;2.20;100.00;100280.50;4964279;28;20027;-50
2022/01/05 06:45:36;;;;;;;18.45;2.30;;;;;;;2.26;100.00;100285.28;4964244;28;20065;-49
2022/01/05 06:48:01;;;;;;;15.45;2.50;;;;;;;2.31;100.00;100301.56;4964879;28;20035;-50
2022/01/05 06:50:27;;;;;;;24.73;3.45;;;;;;;2.37;100.00;100297.59;4964550;28;20069;-49
2022/01/05 06:52:55;;;;;;;22.90;2.90;;;;;;;2.45;100.00;100299.63;4963176;28;20121;-48
2022/01/05 06:55:21;;;;;;;18.88;2.13;;;;;;;2.52;100.00;100306.09;4963640;28;20058;-45
2022/01/05 06:57:47;;;;;;;24.60;2.65;;;;;;;2.57;100.00;100319.75;4963304;28;20058;-46
2022/01/05 07:00:13;;;;;;;20.55;3.05;;;;;;;2.61;100.00;100322.00;4964315;28;20468;-50
2022/01/05 07:02:39;;;;;;;18.52;2.50;;;;;;;2.67;100.00;100330.41;4963890;28;20022;-47
2022/01/05 07:05:05;;;;;;;22.67;2.72;;;;;;;2.70;100.00;100324.84;4964095;28;20544;-49
2022/01/05 07:07:31;;;;;;;13.43;2.20;;;;;;;2.76;100.00;100319.09;4962463;28;20409;-45
2022/01/05 07:09:56;;;;;;;21.08;3.00;;;;;;;2.80;100.00;100309.97;4964317;28;20030;-46
2022/01/05 07:12:21;;;;;;;18.15;3.15;;;;;;;2.86;100.00;100327.09;4964331;28;20563;-49
2022/01/05 07:14:47;;;;;;;21.65;3.20;;;;;;;2.93;100.00;100323.00;4962655;28;20027;-48
2022/01/05 07:17:12;;;;;;;19.35;2.33;;;;;;;2.94;100.00;100338.72;4963775;28;20166;-49
2022/01/05 07:19:37;;;;;;;21.45;3.15;;;;;;;2.97;100.00;100334.97;4963408;28;20030;-47
2022/01/05 07:22:03;;;;;;;12.75;2.30;;;;;;;2.99;100.00;100341.81;4962919;28;20051;-45
2022/01/05 07:24:28;;;;;;;15.02;2.17;;;;;;;3.06;100.00;100339.50;4962784;28;20382;-44
2022/01/05 07:26:54;;;;;;;15.35;2.30;;;;;;;3.08;100.00;100347.31;4946355;28;20044;-44
2022/01/05 07:29:19;;;;;;;15.98;2.35;;;;;;;3.08;100.00;100344.66;4963384;28;20030;-47
2022/01/05 07:31:45;;;;;;;19.25;2.53;;;;;;;3.09;100.00;100346.31;4962847;28;20026;-46
2022/01/05 07:34:11;;;;;;;19.90;2.28;;;;;;;3.11;100.00;100347.06;4963394;28;20597;-45
2022/01/05 07:36:36;;;;;;;27.30;3.00;;;;;;;3.11;100.00;100350.53;4966726;28;20034;-47
2022/01/05 07:39:04;;;;;;;19.50;2.65;;;;;;;3.17;100.00;100343.91;4982421;28;20037;-49
2022/01/05 07:41:30;;;;;;;23.40;2.88;;;;;;;3.18;100.00;100353.50;4981710;28;20367;-49
2022/01/05 07:43:55;;;;;;;12.82;2.25;;;;;;;3.18;100.00;100354.34;4979744;28;20393;-48
2022/01/05 07:46:21;;;;;;;17.02;2.45;;;;;;;3.20;100.00;100359.50;4983035;28;20030;-46
2022/01/05 07:48:46;;;;;;;18.40;3.00;;;;;;;3.23;100.00;100369.78;4961388;28;20058;-47
2022/01/05 07:51:12;;;;;;;16.48;2.08;;;;;;;3.27;100.00;100376.50;4972491;28;20037;-48
2022/01/05 07:53:37;;;;;;;22.83;2.35;;;;;;;3.32;100.00;100384.03;4976667;28;20057;-48
2022/01/05 07:56:03;;;;;;;26.33;2.83;;;;;;;3.32;100.00;100382.22;4983189;28;20153;-46
2022/01/05 07:58:28;;;;;;;14.25;2.40;;;;;;;3.35;100.00;100392.53;4978647;28;20018;-49
2022/01/05 08:00:53;;;;;;;13.85;2.20;;;;;;;3.38;100.00;100398.53;4982631;28;20030;-46
2022/01/05 08:03:18;;;;;;;24.52;2.85;;;;;;;3.36;100.00;100391.59;4973626;28;20069;-45
2022/01/05 08:05:44;;;;;;;19.73;2.63;;;;;;;3.40;100.00;100397.44;4978741;28;20025;-48
2022/01/05 08:08:09;;;;;;;22.67;2.70;;;;;;;3.41;100.00;100398.28;4976430;28;20023;-44
2022/01/05 08:10:34;;;;;;;17.50;3.67;;;;;;;3.42;100.00;100394.69;4979856;28;20030;-47
2022/01/05 08:13:00;;;;;;;16.27;2.33;;;;;;;3.41;100.00;100388.59;4981913;28;20030;-48
2022/01/05 08:15:25;;;;;;;23.10;2.65;;;;;;;3.43;100.00;100397.19;4974749;28;20045;-45
2022/01/05 08:17:50;;;;;;;9.23;2.33;;;;;;;3.42;100.00;100376.22;4972044;28;20591;-46
2022/01/05 08:20:15;;;;;;;20.73;2.63;;;;;;;3.44;100.00;100390.13;4971818;28;20370;-47
2022/01/05 08:22:43;;;;;;;15.65;2.15;;;;;;;3.41;100.00;100388.59;4975192;28;20049;-48
2022/01/05 08:25:10;;;;;;;25.00;3.45;;;;;;;3.38;100.00;100395.88;4976462;28;20029;-49
2022/01/05 08:27:37;;;;;;;15.82;2.78;;;;;;;3.37;100.00;100405.63;4980861;28;20161;-45
2022/01/05 08:30:06;;;;;;;16.25;2.30;;;;;;;3.35;100.00;100400.47;4981416;28;20305;-44
2022/01/05 08:32:32;;;;;;;18.52;2.55;;;;;;;3.35;100.00;100407.53;4981418;28;20026;-45
2022/01/05 08:34:58;;;;;;;24.27;2.83;;;;;;;3.36;100.00;100402.16;4980885;28;20030;-46
2022/01/05 08:37:23;;;;;;;21.25;2.30;;;;;;;3.31;100.00;100395.53;4972552;28;20061;-49
2022/01/05 08:39:51;;;;;;;23.17;3.00;;;;;;;3.24;100.00;100400.50;4961792;28;20022;-47
2022/01/05 08:42:18;;;;;;;20.40;2.65;;;;;;;3.26;100.00;100398.59;4981438;28;20046;-49
2022/01/05 08:44:43;;;;;;;18.85;2.95;;;;;;;3.30;100.00;100407.09;4980506;28;20060;-46
2022/01/05 08:47:08;;;;;;;15.60;2.80;;;;;;;3.36;100.00;100407.44;4980141;28;20524;-48
2022/01/05 08:49:34;;;;;;;25.38;2.72;;;;;;;3.43;100.00;100401.63;4969581;28;20097;-46
2022/01/05 08:52:00;;;;;;;25.20;3.25;;;;;;;3.49;100.00;100406.41;4970883;28;20102;-46
2022/01/05 08:54:25;;;;;;;25.52;3.85;;;;;;;3.65;100.00;100408.63;4973640;28;20022;-45
2022/01/05 08:56:51;;;;;;;17.90;2.60;;;;;;;3.80;100.00;100419.72;4980771;28;20442;-47
2022/01/05 08:59:16;;;;;;;27.35;3.03;;;;;;;3.87;100.00;100434.06;4977174;28;20038;-47
2022/01/05 09:01:43;;;;;;;17.02;3.20;;;;;;;3.95;100.00;100423.72;4959488;28;20027;-44
2022/01/05 09:04:09;;;;;;;26.63;2.55;;;;;;;3.97;100.00;100428.88;4958484;28;20015;-45
2022/01/05 09:06:34;;;;;;;32.78;3.30;;;;;;;3.95;100.00;100422.88;4960036;28;20330;-44
2022/01/05 09:08:59;;;;;;;22.42;3.10;;;;;;;3.94;100.00;100440.56;4942216;28;20038;-46
2022/01/05 09:11:27;;;;;;;18.48;3.00;;;;;;;3.86;100.00;100435.88;4961986;28;20026;-47
2022/01/05 09:13:52;;;;;;;19.52;2.28;;;;;;;3.70;100.00;100431.06;4960566;28;20038;-46
2022/01/05 09:16:18;;;;;;;25.52;3.28;;;;;;;3.60;100.00;100437.19;4960717;28;20129;-46
2022/01/05 09:18:44;;;;;;;21.92;2.80;;;;;;;3.49;100.00;100443.38;4943766;28;20548;-46
2022/01/05 09:21:09;;;;;;;22.45;3.40;;;;;;;3.41;100.00;100469.56;4961099;28;20163;-48
2022/01/05 09:23:34;;;;;;;20.77;2.65;;;;;;;3.34;100.00;100442.81;4959540;28;20026;-50
2022/01/05 09:25:59;;;;;;;21.55;2.90;;;;;;;3.30;100.00;100455.41;4943525;28;20069;-47
2022/01/05 09:28:25;;;;;;;26.90;3.10;;;;;;;3.27;100.00;100444.28;4961024;28;20144;-49
2022/01/05 09:30:50;;;;;;;21.95;3.03;;;;;;;3.30;100.00;100458.06;4960358;28;20038;-48
2022/01/05 09:33:15;;;;;;;26.70;3.63;;;;;;;3.26;100.00;100463.69;4961058;28;20557;-46
2022/01/05 09:35:42;;;;;;;28.75;2.90;;;;;;;3.25;100.00;100468.16;4960061;28;20223;-45
2022/01/05 09:38:21;;;;;;;23.30;3.75;;;;;;;3.29;100.00;100466.97;4960231;28;20062;-46
2022/01/05 09:43:47;;;;;;;20.33;2.88;;;;;;;3.33;100.00;100491.31;4960605;28;20146;-45
2022/01/05 09:46:27;;;;;;;19.85;3.28;;;;;;;3.32;100.00;100471.97;4960647;28;20058;-47
2022/01/05 09:49:06;;;;;;;21.00;2.85;;;;;;;3.31;100.00;100469.44;4961210;28;20465;-46
2022/01/05 09:51:33;;;;;;;19.52;2.55;;;;;;;3.33;100.00;100476.28;4959863;28;20037;-46
2022/01/05 09:54:01;;;;;;;21.52;2.50;;;;;;;3.32;100.00;100469.31;4959541;28;20486;-45
2022/01/05 09:56:29;;;;;;;20.85;2.97;;;;;;;3.39;100.00;100474.94;4960440;28;20042;-45
2022/01/05 09:59:00;;;;;;;23.15;2.78;;;;;;;3.39;100.00;100498.72;4960834;28;20027;-45
2022/01/05 10:01:26;;;;;;;26.23;2.78;;;;;;;3.42;100.00;100487.06;4959932;28;20117;-49
2022/01/05 10:03:51;;;;;;;27.98;2.80;;;;;;;3.44;100.00;100490.44;4943159;28;20114;-44
2022/01/05 10:06:16;;;;;;;24.52;2.97;;;;;;;3.49;100.00;100496.19;4963842;28;20038;-47
2022/01/05 10:08:43;;;;;;;22.60;3.08;;;;;;;3.49;100.00;100489.09;4962773;28;20023;-46
2022/01/05 10:11:09;;;;;;;34.47;4.28;;;;;;;3.60;100.00;100509.34;4964240;28;20046;-47
2022/01/05 10:13:35;;;;;;;30.00;2.47;;;;;;;3.71;100.00;100495.28;4963484;28;20030;-49
2022/01/05 10:16:01;;;;;;;14.25;2.45;;;;;;;3.86;100.00;100501.09;4962576;28;20030;-50
2022/01/05 10:18:38;;;;;;;30.98;3.45;;;;;;;4.00;100.00;100510.53;4964515;28;20077;-47
2022/01/05 10:21:05;;;;;;;21.60;2.97;;;;;;;4.06;100.00;100516.16;4964029;28;20034;-45
2022/01/05 10:23:33;;;;;;;16.23;2.13;;;;;;;4.10;100.00;100500.88;4962343;28;20582;-47
2022/01/05 10:26:33;;;;;;;27.08;2.60;;;;;;;4.14;100.00;100523.47;4946441;28;20022;-50
2022/01/05 10:29:22;;;;;;;23.30;3.35;;;;;;;4.18;100.00;100508.19;4964571;28;20027;-49
2022/01/05 10:31:55;;;;;;;25.85;3.03;;;;;;;4.26;100.00;100514.50;4963390;28;20453;-47
2022/01/05 10:34:26;;;;;;;19.10;2.60;;;;;;;4.31;100.00;100514.09;4963613;28;20065;-48
2022/01/05 10:36:54;;;;;;;19.13;2.20;;;;;;;4.33;100.00;100521.88;4962426;28;20058;-47
2022/01/05 10:39:42;;;;;;;23.23;2.72;;;;;;;4.39;100.00;100526.69;4963298;28;20576;-46
2022/01/05 10:42:12;;;;;;;19.48;2.92;;;;;;;4.48;100.00;100518.81;4963523;28;20382;-46
2022/01/05 10:44:41;;;;;;;28.13;3.83;;;;;;;4.62;100.00;100515.00;4961939;28;20022;-49
2022/01/05 10:47:06;;;;;;;21.35;2.42;;;;;;;4.72;100.00;100523.00;4963626;28;20037;-47
2022/01/05 10:49:35;;;;;;;22.65;2.75;;;;;;;4.82;100.00;100538.88;4961561;28;20517;-47
2022/01/05 10:52:19;;;;;;;21.42;2.90;;;;;;;4.84;100.00;100548.38;4961782;28;20027;-46
2022/01/05 10:54:45;;;;;;;24.35;3.08;;;;;;;4.77;100.00;100557.81;4962285;28;20097;-50
2022/01/05 10:57:13;;;;;;;29.77;3.65;;;;;;;4.72;100.00;100553.88;4963564;28;20071;-45
2022/01/05 10:59:50;;;;;;;25.20;3.30;;;;;;;4.67;100.00;100552.47;4963264;28;20035;-49
2022/01/05 11:02:31;;;;;;;26.67;3.13;;;;;;;4.71;100.00;100554.84;4963065;28;20054;-50
2022/01/05 11:05:02;;;;;;;26.25;3.30;;;;;;;4.73;100.00;100569.63;4963645;28;20034;-45
2022/01/05 11:07:31;;;;;;;23.20;3.13;;;;;;;4.81;100.00;100561.03;4962459;28;20381;-47
2022/01/05 11:10:05;;;;;;;18.15;2.70;;;;;;;4.92;100.00;100566.28;4945825;28;20104;-46
2022/01/05 11:12:32;;;;;;;33.78;4.15;;;;;;;4.98;100.00;100567.53;4963260;28;20113;-45
2022/01/05 11:15:20;;;;;;;22.67;2.58;;;;;;;5.04;100.00;100574.94;4963403;28;20379;-47
2022/01/05 11:18:04;;;;;;;18.38;2.67;;;;;;;5.03;100.00;100563.50;4947290;28;20525;-47
2022/01/05 11:20:29;;;;;;;19.25;3.03;;;;;;;5.03;100.00;100565.34;4962636;28;20046;-45